Time;durP1;ratioP1;P1;durP2;ratioP2;P2;SDS_P1;SDS_P2;PMS_P1;PMS_P2;Temp;Humidity;BMP_temperature;BMP_pressure;BME280_temperature;BME280_humidity;BME280_pressure;Samples;Min_cycle;Max_cycle;Signal;HPM_P1;HPM_P2
2022/10/10 00:01:04;;;;;;;11.10;4.07;;;8.10;99.90;;;;;;4896622;29;20103;-86
2022/10/10 00:03:30;;;;;;;10.30;4.38;;;7.70;99.90;;;;;;4896816;29;20082;-85
2022/10/10 00:05:56;;;;;;;8.70;4.15;;;7.70;99.90;;;;;;4894481;29;20052;-85
2022/10/10 00:08:21;;;;;;;9.85;4.53;;;7.60;99.90;;;;;;4896158;29;20052;-85
2022/10/10 00:10:47;;;;;;;9.48;3.72;;;8.20;99.90;;;;;;4895414;29;20056;-85
2022/10/10 00:13:13;;;;;;;12.95;4.80;;;7.60;99.90;;;;;;4895445;29;20080;-85
2022/10/10 00:15:39;;;;;;;7.38;4.30;;;7.70;99.90;;;;;;4895615;29;20052;-86
2022/10/10 00:18:04;;;;;;;7.25;4.18;;;7.60;99.90;;;;;;4896138;29;20052;-85
2022/10/10 00:20:30;;;;;;;10.90;4.40;;;7.60;99.90;;;;;;4894581;29;20533;-85
2022/10/10 00:22:56;;;;;;;10.38;4.10;;;7.80;99.90;;;;;;4895473;29;20176;-84
2022/10/10 00:25:21;;;;;;;8.80;4.20;;;7.50;99.90;;;;;;4895717;29;20436;-85
2022/10/10 00:27:47;;;;;;;9.10;4.20;;;7.50;99.90;;;;;;4895405;29;20051;-85
2022/10/10 00:30:13;;;;;;;9.32;4.25;;;7.50;99.90;;;;;;4895704;29;20640;-85
2022/10/10 00:32:39;;;;;;;10.00;4.47;;;7.50;99.90;;;;;;4896042;29;20048;-84
2022/10/10 00:35:05;;;;;;;9.07;4.55;;;7.50;99.90;;;;;;4894060;29;20047;-85
2022/10/10 00:37:31;;;;;;;8.90;4.65;;;7.50;99.90;;;;;;4896261;29;20052;-84
2022/10/10 00:39:56;;;;;;;12.45;5.05;;;7.90;99.90;;;;;;4894620;29;20342;-85
2022/10/10 00:42:22;;;;;;;11.48;4.65;;;7.50;99.90;;;;;;4895335;29;20056;-85
2022/10/10 00:45:19;;;;;;;11.40;4.20;;;7.50;99.90;;;;;;4895423;29;20059;-84
2022/10/10 00:47:45;;;;;;;9.23;4.60;;;7.60;99.90;;;;;;4894390;29;20492;-85
2022/10/10 00:50:11;;;;;;;10.07;4.43;;;7.60;99.90;;;;;;4894879;29;20058;-85
2022/10/10 00:52:37;;;;;;;9.50;4.95;;;7.60;99.90;;;;;;4895659;29;20040;-85
2022/10/10 00:55:03;;;;;;;13.70;4.60;;;7.70;99.90;;;;;;4894305;29;20497;-84
2022/10/10 00:57:29;;;;;;;9.82;4.30;;;7.70;99.90;;;;;;4895543;29;20079;-85
2022/10/10 00:59:56;;;;;;;9.35;4.13;;;7.60;99.90;;;;;;4894649;29;20080;-85
2022/10/10 01:02:21;;;;;;;9.57;4.28;;;7.90;99.90;;;;;;4894963;29;20048;-85
2022/10/10 01:04:47;;;;;;;10.02;4.00;;;7.60;99.90;;;;;;4894101;29;20412;-85
2022/10/10 01:07:18;;;;;;;7.50;4.20;;;7.50;99.90;;;;;;4894963;29;20047;-85
2022/10/10 01:09:44;;;;;;;11.35;4.15;;;7.50;99.90;;;;;;4892791;29;20063;-84
2022/10/10 01:12:21;;;;;;;8.93;4.03;;;7.90;99.90;;;;;;4895245;29;20139;-85
2022/10/10 01:14:58;;;;;;;13.30;4.90;;;7.50;99.90;;;;;;4894279;29;20040;-85
2022/10/10 01:17:25;;;;;;;9.75;4.07;;;7.80;99.90;;;;;;4893916;29;20062;-84
2022/10/10 01:20:29;;;;;;;6.90;4.00;;;7.70;99.90;;;;;;4894096;29;20397;-84
2022/10/10 01:23:07;;;;;;;8.57;3.95;;;7.40;99.90;;;;;;4893501;29;20052;-85
2022/10/10 01:25:44;;;;;;;12.88;4.70;;;7.40;99.90;;;;;;4894587;29;20052;-85
2022/10/10 01:28:37;;;;;;;7.70;4.85;;;7.40;99.90;;;;;;4895098;29;20400;-85
2022/10/10 01:31:07;;;;;;;8.60;4.55;;;7.30;99.90;;;;;;4893317;29;20401;-85
2022/10/10 01:33:52;;;;;;;8.18;3.95;;;7.30;99.90;;;;;;4897916;29;20048;-85
2022/10/10 01:36:28;;;;;;;13.52;4.53;;;7.30;99.90;;;;;;4896603;29;20591;-86
2022/10/10 01:39:03;;;;;;;12.30;5.15;;;7.30;99.90;;;;;;4913165;29;20066;-85
2022/10/10 01:41:35;;;;;;;10.13;4.38;;;7.30;99.90;;;;;;4913240;29;20563;-85
2022/10/10 01:44:01;;;;;;;8.68;4.50;;;7.20;99.90;;;;;;4912009;29;20052;-84
2022/10/10 01:46:27;;;;;;;9.45;4.47;;;7.10;99.90;;;;;;4912865;29;20476;-84
2022/10/10 01:48:56;;;;;;;11.48;4.82;;;7.90;99.90;;;;;;4912855;29;20514;-85
2022/10/10 01:51:34;;;;;;;8.65;4.55;;;7.10;99.90;;;;;;4896007;29;20125;-84
2022/10/10 01:54:19;;;;;;;8.40;4.60;;;7.20;99.90;;;;;;4897723;29;20055;-84
2022/10/10 01:57:08;;;;;;;9.32;4.65;;;7.00;99.90;;;;;;4928762;29;20094;-85
2022/10/10 01:59:47;;;;;;;8.30;4.60;;;7.00;99.90;;;;;;4912612;29;20063;-84
2022/10/10 02:02:18;;;;;;;14.95;4.55;;;7.40;99.90;;;;;;4913339;29;20127;-85
2022/10/10 02:04:55;;;;;;;8.90;4.50;;;7.20;99.90;;;;;;4895810;29;20079;-85
2022/10/10 02:07:29;;;;;;;10.48;4.60;;;7.00;99.90;;;;;;4897112;29;20480;-86
2022/10/10 02:09:58;;;;;;;8.98;4.97;;;7.00;99.90;;;;;;4912463;29;20094;-84
2022/10/10 02:12:25;;;;;;;8.50;4.47;;;7.20;99.90;;;;;;4912131;29;20519;-86
2022/10/10 02:14:54;;;;;;;10.43;5.10;;;7.20;99.90;;;;;;4891564;29;20047;-85
2022/10/10 02:17:22;;;;;;;10.50;4.90;;;7.00;99.90;;;;;;4887381;29;20040;-85
2022/10/10 02:19:52;;;;;;;10.40;4.00;;;7.00;99.90;;;;;;4885045;29;20052;-85
2022/10/10 02:22:21;;;;;;;12.43;4.55;;;7.00;99.90;;;;;;4900967;29;20047;-85
2022/10/10 02:24:47;;;;;;;10.07;4.97;;;7.20;99.90;;;;;;4886079;29;20058;-85
2022/10/10 02:27:20;;;;;;;8.20;4.68;;;6.90;99.90;;;;;;4886011;29;20172;-85
2022/10/10 02:29:47;;;;;;;10.32;4.78;;;6.90;99.90;;;;;;4901452;29;20052;-85
2022/10/10 02:32:30;;;;;;;11.93;5.00;;;7.00;99.90;;;;;;4924795;29;20385;-85
2022/10/10 02:34:59;;;;;;;10.20;4.27;;;7.00;99.90;;;;;;4883318;29;20076;-85
2022/10/10 02:37:26;;;;;;;8.48;5.30;;;6.90;99.90;;;;;;4886764;29;20044;-85
2022/10/10 02:39:58;;;;;;;12.93;5.18;;;7.10;99.90;;;;;;4899072;29;20529;-85
2022/10/10 02:42:25;;;;;;;9.70;5.03;;;7.20;99.90;;;;;;4878300;29;20051;-85
2022/10/10 02:44:51;;;;;;;9.15;4.72;;;7.30;99.90;;;;;;4877238;29;20052;-85
2022/10/10 02:47:17;;;;;;;7.47;5.30;;;7.10;99.90;;;;;;4893103;29;20508;-85
2022/10/10 02:49:44;;;;;;;10.60;4.82;;;6.90;99.90;;;;;;4877451;29;20199;-84
2022/10/10 02:52:13;;;;;;;11.00;5.30;;;6.80;99.90;;;;;;4893375;29;20049;-85
2022/10/10 02:54:39;;;;;;;9.27;4.65;;;6.70;99.90;;;;;;4877064;29;20405;-86
2022/10/10 02:57:05;;;;;;;8.80;5.03;;;6.70;99.90;;;;;;4894008;29;20048;-85
2022/10/10 02:59:31;;;;;;;12.00;5.68;;;6.70;99.90;;;;;;4878808;29;20040;-85
2022/10/10 03:01:56;;;;;;;9.35;4.97;;;6.80;99.90;;;;;;4891174;29;20516;-85
2022/10/10 03:04:22;;;;;;;7.93;5.00;;;7.60;99.90;;;;;;4893752;29;20103;-85
2022/10/10 03:06:48;;;;;;;9.95;5.25;;;7.00;99.90;;;;;;4891931;29;20126;-85
2022/10/10 03:09:14;;;;;;;13.20;5.07;;;6.60;99.90;;;;;;4877303;29;20056;-85
2022/10/10 03:11:40;;;;;;;7.93;4.40;;;6.70;99.90;;;;;;4893354;29;20047;-84
2022/10/10 03:14:05;;;;;;;11.48;5.15;;;7.30;99.90;;;;;;4908945;29;20064;-85
2022/10/10 03:16:31;;;;;;;11.57;5.10;;;6.90;99.90;;;;;;4892497;29;20047;-85
2022/10/10 03:18:57;;;;;;;9.38;5.32;;;7.10;99.90;;;;;;4892976;29;20048;-85
2022/10/10 03:21:22;;;;;;;11.60;5.57;;;6.70;99.90;;;;;;4892641;29;20187;-85
2022/10/10 03:23:48;;;;;;;10.70;5.20;;;7.00;99.90;;;;;;4892291;29;20064;-85
2022/10/10 03:26:14;;;;;;;9.68;5.15;;;6.80;99.90;;;;;;4892896;29;20441;-85
2022/10/10 03:28:40;;;;;;;11.02;5.45;;;7.00;99.90;;;;;;4909263;29;20059;-85
2022/10/10 03:31:05;;;;;;;9.15;5.72;;;6.70;99.90;;;;;;4907969;29;20040;-84
2022/10/10 03:33:32;;;;;;;13.05;5.68;;;6.60;99.90;;;;;;4894477;29;20567;-85
2022/10/10 03:35:58;;;;;;;11.00;5.93;;;7.00;99.90;;;;;;4895279;29;20072;-85
2022/10/10 03:38:24;;;;;;;7.90;5.45;;;7.20;99.90;;;;;;4896439;29;20162;-85
2022/10/10 03:40:49;;;;;;;12.25;6.10;;;7.00;99.90;;;;;;4911905;29;20074;-85
2022/10/10 03:43:15;;;;;;;9.95;5.45;;;6.50;99.90;;;;;;4896299;29;20055;-86
2022/10/10 03:45:43;;;;;;;11.98;5.95;;;6.50;99.90;;;;;;4896462;29;20489;-86
2022/10/10 03:48:09;;;;;;;9.60;5.95;;;6.70;99.90;;;;;;4897021;29;20055;-85
2022/10/10 03:50:35;;;;;;;13.02;5.60;;;6.40;99.90;;;;;;4910478;29;20048;-85
2022/10/10 03:53:01;;;;;;;10.30;5.80;;;6.60;99.90;;;;;;4912158;29;20094;-85
2022/10/10 03:55:27;;;;;;;11.63;6.00;;;7.40;99.90;;;;;;4895918;29;20081;-86
2022/10/10 03:57:52;;;;;;;10.15;5.72;;;6.90;99.90;;;;;;4895526;29;20070;-85
2022/10/10 04:00:18;;;;;;;14.88;6.07;;;6.30;99.90;;;;;;4895975;29;20052;-85
2022/10/10 04:02:44;;;;;;;11.57;5.38;;;6.30;99.90;;;;;;4896011;29;20048;-86
2022/10/10 04:05:10;;;;;;;12.30;6.00;;;6.30;99.90;;;;;;4895131;29;20134;-85
2022/10/10 04:07:36;;;;;;;9.35;5.95;;;6.30;99.90;;;;;;4896182;29;20500;-85
2022/10/10 04:10:02;;;;;;;14.48;6.38;;;6.30;99.90;;;;;;4896008;29;20059;-85
2022/10/10 04:12:28;;;;;;;11.82;5.88;;;6.20;99.90;;;;;;4895582;29;20056;-85
2022/10/10 04:14:53;;;;;;;13.02;6.30;;;6.30;99.90;;;;;;4895221;29;20052;-85
2022/10/10 04:17:19;;;;;;;10.15;6.10;;;6.50;99.90;;;;;;4895980;29;20048;-85
2022/10/10 04:19:44;;;;;;;11.98;6.93;;;6.60;99.90;;;;;;4894256;29;20496;-85
2022/10/10 04:22:10;;;;;;;13.10;6.60;;;6.90;99.90;;;;;;4911210;29;20050;-85
2022/10/10 04:24:36;;;;;;;12.30;6.55;;;6.20;99.90;;;;;;4896309;29;20082;-85
2022/10/10 04:27:02;;;;;;;9.57;6.63;;;6.20;99.90;;;;;;4896092;29;20566;-85
2022/10/10 04:29:27;;;;;;;14.48;6.25;;;6.80;99.90;;;;;;4916256;29;20078;-85
2022/10/10 04:31:53;;;;;;;12.25;6.60;;;6.20;99.90;;;;;;4916450;29;20110;-85
2022/10/10 04:34:19;;;;;;;11.20;6.40;;;6.40;99.90;;;;;;4916841;29;20051;-85
2022/10/10 04:36:44;;;;;;;10.63;6.15;;;6.30;99.90;;;;;;4916613;29;20051;-85
2022/10/10 04:39:10;;;;;;;14.70;6.95;;;6.10;99.90;;;;;;4913024;29;20089;-84
2022/10/10 04:41:36;;;;;;;9.43;6.50;;;6.10;99.90;;;;;;4898915;29;20047;-85
2022/10/10 04:44:02;;;;;;;12.80;6.55;;;6.20;99.90;;;;;;4898604;29;20429;-85
2022/10/10 04:46:27;;;;;;;11.48;6.90;;;6.80;99.90;;;;;;4914058;29;20448;-85
2022/10/10 04:48:53;;;;;;;11.88;6.68;;;6.20;99.90;;;;;;4898666;29;20614;-84
2022/10/10 04:51:18;;;;;;;13.25;7.25;;;7.10;99.90;;;;;;4897474;29;20047;-85
2022/10/10 04:53:44;;;;;;;11.32;6.88;;;6.50;99.90;;;;;;4897682;29;20347;-85
2022/10/10 04:56:10;;;;;;;12.27;6.75;;;6.20;99.90;;;;;;4898203;29;20047;-84
2022/10/10 04:58:35;;;;;;;14.95;6.75;;;6.20;99.90;;;;;;4898278;29;20125;-85
2022/10/10 05:01:02;;;;;;;14.77;6.82;;;6.20;99.90;;;;;;4897404;29;20058;-85
2022/10/10 05:03:29;;;;;;;11.15;6.90;;;6.30;99.90;;;;;;4898196;29;20043;-85
2022/10/10 05:05:54;;;;;;;11.35;6.78;;;6.50;99.90;;;;;;4897861;29;20047;-85
2022/10/10 05:08:20;;;;;;;11.18;6.80;;;6.40;99.90;;;;;;4897766;29;20058;-85
2022/10/10 05:10:46;;;;;;;15.70;7.40;;;6.30;99.90;;;;;;4913891;29;20060;-85
2022/10/10 05:13:14;;;;;;;13.27;6.55;;;6.50;99.90;;;;;;4879912;29;20057;-84
2022/10/10 05:15:40;;;;;;;11.95;7.20;;;6.40;99.90;;;;;;4878626;29;20122;-85
2022/10/10 05:18:06;;;;;;;10.57;6.85;;;6.30;99.90;;;;;;4910941;29;20671;-85
2022/10/10 05:20:33;;;;;;;13.90;7.68;;;6.50;99.90;;;;;;4909780;29;20433;-85
2022/10/10 05:22:59;;;;;;;13.77;7.15;;;6.40;99.90;;;;;;4909804;29;20131;-85
2022/10/10 05:25:25;;;;;;;12.60;6.97;;;7.00;99.90;;;;;;4879279;29;20140;-84
2022/10/10 05:27:52;;;;;;;18.65;7.18;;;6.40;99.90;;;;;;4910298;29;20062;-85
2022/10/10 05:30:18;;;;;;;12.50;7.07;;;6.70;99.90;;;;;;4909698;29;20048;-85
2022/10/10 05:32:43;;;;;;;19.25;7.82;;;6.90;99.90;;;;;;4910289;29;20056;-85
2022/10/10 05:35:09;;;;;;;14.27;7.65;;;6.40;99.90;;;;;;4909783;29;20615;-84
2022/10/10 05:37:35;;;;;;;13.40;7.22;;;6.40;99.90;;;;;;4879002;29;20041;-85
2022/10/10 05:40:01;;;;;;;13.10;7.60;;;6.60;99.90;;;;;;4878299;29;20614;-84
2022/10/10 05:42:27;;;;;;;12.90;7.43;;;6.50;99.90;;;;;;4881525;29;20398;-84
2022/10/10 05:44:53;;;;;;;14.25;7.30;;;6.50;99.90;;;;;;4918165;29;20066;-85
2022/10/10 05:47:18;;;;;;;12.85;7.50;;;6.70;99.90;;;;;;4897858;29;20044;-84
2022/10/10 05:49:44;;;;;;;15.77;7.20;;;6.80;99.90;;;;;;4896429;29;20047;-84
2022/10/10 05:52:10;;;;;;;14.30;8.57;;;6.80;99.90;;;;;;4905401;29;20052;-85
2022/10/10 05:54:35;;;;;;;10.43;7.22;;;6.50;99.90;;;;;;4900361;29;20498;-85
2022/10/10 05:57:01;;;;;;;16.40;7.80;;;6.90;99.90;;;;;;4924586;29;20043;-84
2022/10/10 05:59:28;;;;;;;10.70;6.88;;;6.60;99.90;;;;;;4903559;29;20058;-84
2022/10/10 06:01:54;;;;;;;12.95;8.25;;;6.40;99.90;;;;;;4885809;29;20535;-84
2022/10/10 06:04:21;;;;;;;12.57;7.90;;;6.40;99.90;;;;;;4902261;29;20047;-86
2022/10/10 06:06:48;;;;;;;14.80;8.32;;;6.70;99.90;;;;;;4905820;29;20047;-85
2022/10/10 06:09:14;;;;;;;16.20;7.85;;;6.40;99.90;;;;;;4928508;29;20183;-85
2022/10/10 06:11:39;;;;;;;12.93;7.43;;;6.50;99.90;;;;;;4912082;29;20484;-85
2022/10/10 06:14:05;;;;;;;12.93;7.15;;;6.50;99.90;;;;;;4896811;29;20047;-84
2022/10/10 06:16:31;;;;;;;12.98;7.93;;;6.50;99.90;;;;;;4897489;29;20090;-85
2022/10/10 06:18:57;;;;;;;13.52;7.82;;;6.50;99.90;;;;;;4902446;29;20055;-84
2022/10/10 06:21:23;;;;;;;14.05;8.13;;;6.80;99.90;;;;;;4902334;29;20104;-85
2022/10/10 06:23:50;;;;;;;18.25;8.13;;;6.90;99.90;;;;;;4886217;29;20476;-85
2022/10/10 06:26:16;;;;;;;16.83;8.18;;;6.70;99.90;;;;;;4917920;29;20048;-85
2022/10/10 06:28:42;;;;;;;16.13;8.27;;;6.70;99.90;;;;;;4888155;29;20411;-84
2022/10/10 06:31:11;;;;;;;13.52;8.10;;;6.80;99.90;;;;;;4917618;29;20396;-85
2022/10/10 06:33:36;;;;;;;13.40;8.00;;;6.70;99.90;;;;;;4894538;29;20080;-85
2022/10/10 06:36:06;;;;;;;12.15;7.72;;;6.70;99.90;;;;;;4911368;29;20098;-85
2022/10/10 06:38:36;;;;;;;15.38;8.05;;;6.70;99.90;;;;;;4912748;29;20111;-85
2022/10/10 06:41:03;;;;;;;12.85;7.85;;;6.90;99.90;;;;;;4893308;29;20095;-85
2022/10/10 06:43:29;;;;;;;14.65;8.15;;;6.90;99.90;;;;;;4878850;29;20454;-84
2022/10/10 06:45:55;;;;;;;12.57;7.70;;;6.90;99.90;;;;;;4892631;29;20499;-84
2022/10/10 06:48:21;;;;;;;20.27;8.25;;;6.90;99.90;;;;;;4893458;29;20043;-84
2022/10/10 06:50:56;;;;;;;14.32;8.95;;;7.00;99.90;;;;;;4892780;29;20052;-85
2022/10/10 06:53:22;;;;;;;18.63;8.73;;;7.10;99.90;;;;;;4877089;29;20052;-84
2022/10/10 06:55:48;;;;;;;15.00;8.10;;;7.60;99.90;;;;;;4894364;29;20067;-85
2022/10/10 06:58:14;;;;;;;15.52;7.38;;;7.20;99.90;;;;;;4893280;29;20044;-84
2022/10/10 07:00:39;;;;;;;15.80;8.63;;;7.40;99.90;;;;;;4892923;29;20151;-85
2022/10/10 07:03:05;;;;;;;13.77;7.95;;;7.40;99.90;;;;;;4878923;29;20040;-85
2022/10/10 07:05:31;;;;;;;14.63;8.73;;;7.80;99.90;;;;;;4877863;29;20044;-86
2022/10/10 07:07:57;;;;;;;12.23;8.18;;;7.60;99.90;;;;;;4893770;29;20119;-86
2022/10/10 07:10:22;;;;;;;15.00;8.27;;;7.60;99.90;;;;;;4897166;29;20107;-86
2022/10/10 07:12:48;;;;;;;16.92;8.07;;;7.80;99.90;;;;;;4882090;29;20123;-84
2022/10/10 07:15:14;;;;;;;11.10;7.97;;;7.80;99.90;;;;;;4925190;29;20083;-84
2022/10/10 07:17:39;;;;;;;16.35;8.02;;;7.90;99.90;;;;;;4900144;29;20039;-84
2022/10/10 07:20:06;;;;;;;11.80;8.50;;;8.10;99.90;;;;;;4900325;29;20457;-86
2022/10/10 07:22:32;;;;;;;16.33;7.63;;;8.10;99.90;;;;;;4915712;29;20131;-85
2022/10/10 07:24:58;;;;;;;18.98;8.18;;;8.10;99.90;;;;;;4915977;29;20091;-85
2022/10/10 07:27:23;;;;;;;12.90;7.63;;;8.20;99.90;;;;;;4916329;29;20086;-84
2022/10/10 07:29:49;;;;;;;16.23;8.15;;;8.30;99.90;;;;;;4915112;29;20048;-85
2022/10/10 07:32:15;;;;;;;13.13;8.27;;;8.70;99.90;;;;;;4902801;29;20043;-85
2022/10/10 07:34:40;;;;;;;13.57;7.95;;;8.80;99.90;;;;;;4915328;29;20098;-86
2022/10/10 07:37:06;;;;;;;11.02;6.78;;;8.60;99.90;;;;;;4914293;29;20054;-86
2022/10/10 07:39:32;;;;;;;15.75;7.32;;;8.70;99.90;;;;;;4916301;29;20133;-85
2022/10/10 07:41:57;;;;;;;16.35;7.55;;;8.90;99.90;;;;;;4898417;29;20051;-84
2022/10/10 07:44:23;;;;;;;13.88;7.35;;;8.80;99.90;;;;;;4915967;29;20106;-85
2022/10/10 07:46:49;;;;;;;15.68;7.88;;;8.80;99.90;;;;;;4915410;29;20044;-86
2022/10/10 07:49:15;;;;;;;15.10;7.25;;;8.80;99.90;;;;;;4899748;29;20479;-85
2022/10/10 07:51:40;;;;;;;9.82;7.22;;;8.90;99.90;;;;;;4899417;29;20200;-85
2022/10/10 07:54:06;;;;;;;13.60;7.03;;;8.90;99.90;;;;;;4900031;29;20051;-88
2022/10/10 07:56:32;;;;;;;11.60;7.18;;;8.90;99.90;;;;;;4901179;29;20138;-85
2022/10/10 07:58:59;;;;;;;15.10;7.28;;;9.00;99.90;;;;;;4915701;29;20090;-84
2022/10/10 08:01:25;;;;;;;11.88;7.20;;;9.10;99.90;;;;;;4896965;29;20044;-84
2022/10/10 08:03:51;;;;;;;14.35;7.15;;;9.30;99.90;;;;;;4896501;29;20424;-84
2022/10/10 08:06:17;;;;;;;13.35;7.38;;;9.40;99.90;;;;;;4911528;29;20067;-84
2022/10/10 08:08:46;;;;;;;16.13;7.32;;;9.50;99.90;;;;;;4880702;29;20064;-85
2022/10/10 08:11:12;;;;;;;10.98;6.80;;;9.70;99.90;;;;;;4910932;29;20052;-83
2022/10/10 08:13:41;;;;;;;13.75;7.03;;;9.70;99.90;;;;;;4896481;29;20071;-83
2022/10/10 08:16:07;;;;;;;12.75;7.00;;;9.90;99.90;;;;;;4911535;29;20062;-84
2022/10/10 08:18:33;;;;;;;11.73;7.32;;;10.00;99.90;;;;;;4897623;29;20416;-84
2022/10/10 08:21:02;;;;;;;13.20;6.90;;;10.10;99.90;;;;;;4914024;29;20062;-84
2022/10/10 08:23:28;;;;;;;12.80;6.93;;;10.20;99.90;;;;;;4899718;29;20083;-85
2022/10/10 08:25:56;;;;;;;11.77;6.50;;;10.30;99.90;;;;;;4898365;29;20138;-84
2022/10/10 08:28:22;;;;;;;14.77;7.57;;;10.40;99.90;;;;;;4914735;29;20044;-84
2022/10/10 08:30:48;;;;;;;12.77;6.60;;;10.50;99.90;;;;;;4897233;29;20040;-84
2022/10/10 08:33:14;;;;;;;13.30;6.68;;;10.60;99.90;;;;;;4896370;29;20052;-84
2022/10/10 08:35:39;;;;;;;15.05;6.57;;;10.80;99.90;;;;;;4895191;29;20048;-84
2022/10/10 08:38:07;;;;;;;14.50;6.45;;;10.90;99.90;;;;;;4896194;29;20040;-84
2022/10/10 08:40:40;;;;;;;14.13;6.90;;;11.00;99.90;;;;;;4895029;29;20044;-84
2022/10/10 08:43:08;;;;;;;11.88;6.32;;;11.30;99.90;;;;;;4895572;29;20138;-85
2022/10/10 08:45:37;;;;;;;11.40;6.85;;;11.20;99.90;;;;;;4895604;29;20262;-86
2022/10/10 08:48:09;;;;;;;14.27;7.78;;;11.30;99.90;;;;;;4896324;29;20056;-85
2022/10/10 08:50:39;;;;;;;14.02;6.55;;;11.50;99.90;;;;;;4895161;29;20044;-85
2022/10/10 08:53:07;;;;;;;12.27;6.80;;;11.50;99.90;;;;;;4895597;29;20052;-85
2022/10/10 08:55:38;;;;;;;11.20;6.63;;;11.60;99.90;;;;;;4892710;29;20056;-86
2022/10/10 08:58:26;;;;;;;11.75;7.00;;;11.80;99.90;;;;;;4909761;29;20086;-86
2022/10/10 09:01:06;;;;;;;12.73;6.50;;;11.90;99.90;;;;;;4893687;29;20115;-86
2022/10/10 09:03:44;;;;;;;12.07;6.55;;;12.10;99.90;;;;;;4894458;29;20779;-86
2022/10/10 09:06:39;;;;;;;13.77;6.95;;;12.10;99.90;;;;;;4877489;29;20051;-87
2022/10/10 09:09:19;;;;;;;14.98;7.13;;;12.10;99.90;;;;;;4878526;29;20471;-86
2022/10/10 09:12:14;;;;;;;12.63;6.63;;;12.20;99.90;;;;;;4893934;29;20124;-85
2022/10/10 09:15:11;;;;;;;11.52;7.18;;;12.20;99.90;;;;;;4877700;29;20059;-86
2022/10/10 09:17:55;;;;;;;15.40;7.43;;;12.20;99.90;;;;;;4877113;29;20074;-85
2022/10/10 09:20:35;;;;;;;12.57;6.47;;;12.30;99.90;;;;;;4893119;29;20143;-86
2022/10/10 09:23:12;;;;;;;11.30;6.95;;;12.40;99.90;;;;;;4894255;29;20074;-86
2022/10/10 09:25:46;;;;;;;15.25;7.32;;;12.50;99.90;;;;;;4893740;29;20056;-86
2022/10/10 09:28:15;;;;;;;;;;;12.60;99.90;;;;;;4892265;29;20047;-86
2022/10/10 09:30:47;;;;;;;17.08;6.68;;;12.60;99.90;;;;;;4891171;29;19998;-86
2022/10/10 09:33:24;;;;;;;12.30;6.47;;;12.60;99.90;;;;;;4891937;29;20453;-86
2022/10/10 09:35:56;;;;;;;12.52;7.45;;;12.60;99.90;;;;;;4890484;29;20091;-87
2022/10/10 09:38:32;;;;;;;16.10;7.40;;;12.70;99.90;;;;;;4892622;29;20073;-86
2022/10/10 09:41:04;;;;;;;16.30;7.00;;;12.70;99.90;;;;;;4892007;29;20036;-87
2022/10/10 09:43:32;;;;;;;14.63;6.85;;;12.60;99.90;;;;;;4890447;29;20052;-86
2022/10/10 09:45:58;;;;;;;11.70;6.78;;;12.60;99.90;;;;;;4891855;29;20300;-86
2022/10/10 09:48:41;;;;;;;11.25;6.65;;;12.60;99.90;;;;;;4891967;29;20056;-88
2022/10/10 09:51:14;;;;;;;14.38;6.70;;;12.50;99.90;;;;;;4891212;29;20048;-87
2022/10/10 09:53:40;;;;;;;13.27;6.85;;;12.60;99.90;;;;;;4891994;29;20544;-86
2022/10/10 09:56:13;;;;;;;14.00;7.70;;;12.60;99.90;;;;;;4891313;29;20138;-86
2022/10/10 09:58:42;;;;;;;13.75;7.32;;;12.60;99.90;;;;;;4891986;29;20499;-87
2022/10/10 10:01:17;;;;;;;14.23;6.68;;;12.70;99.90;;;;;;4891227;29;20547;-86
2022/10/10 10:03:43;;;;;;;11.70;6.90;;;12.70;99.90;;;;;;4890971;29;20052;-86
2022/10/10 10:06:12;;;;;;;14.52;7.30;;;12.90;99.90;;;;;;4891081;29;20096;-87
2022/10/10 10:08:40;;;;;;;9.80;6.53;;;13.00;99.90;;;;;;4891858;29;20052;-86
2022/10/10 10:11:22;;;;;;;13.75;6.97;;;13.00;99.90;;;;;;4891099;29;20056;-87
2022/10/10 10:13:54;;;;;;;13.50;6.75;;;13.20;99.90;;;;;;4892055;29;20608;-87
2022/10/10 10:16:28;;;;;;;18.25;6.80;;;13.30;99.90;;;;;;4891162;29;20040;-86
2022/10/10 10:18:54;;;;;;;15.23;6.90;;;13.40;99.90;;;;;;4888531;29;20056;-86
2022/10/10 10:21:23;;;;;;;15.38;6.57;;;13.50;99.90;;;;;;4890350;29;20056;-86
2022/10/10 10:23:55;;;;;;;15.13;7.18;;;13.60;99.90;;;;;;4890680;29;20131;-86
2022/10/10 10:26:27;;;;;;;14.02;6.80;;;13.70;99.90;;;;;;4891758;29;20072;-86
2022/10/10 10:28:57;;;;;;;12.35;6.57;;;13.80;99.90;;;;;;4891575;29;20123;-87
2022/10/10 10:31:42;;;;;;;15.07;6.72;;;13.90;99.90;;;;;;4890816;29;20063;-87
2022/10/10 10:34:46;;;;;;;14.07;6.85;;;13.90;99.90;;;;;;4892363;29;20054;-87
2022/10/10 10:37:49;;;;;;;14.60;6.53;;;13.90;99.90;;;;;;4892969;29;20588;-90
2022/10/10 10:40:41;;;;;;;23.77;6.82;;;14.00;99.90;;;;;;4893100;29;20084;-90
2022/10/10 10:43:28;;;;;;;13.73;6.68;;;14.00;99.90;;;;;;4895509;29;20215;-87
2022/10/10 10:46:20;;;;;;;10.02;6.07;;;14.20;99.90;;;;;;4896327;29;20517;-87
2022/10/10 10:49:03;;;;;;;18.10;6.00;;;14.50;99.90;;;;;;4896040;29;20092;-86
2022/10/10 10:52:17;;;;;;;13.05;5.78;;;14.70;99.90;;;;;;4899307;29;20048;-89
2022/10/10 10:55:06;;;;;;;10.80;6.15;;;14.90;99.90;;;;;;4883002;29;20064;-89
2022/10/10 10:57:55;;;;;;;13.23;5.32;;;15.20;99.90;;;;;;4899032;29;20409;-88
2022/10/10 11:00:45;;;;;;;14.00;5.88;;;15.30;99.90;;;;;;4881754;29;20048;-93
2022/10/10 11:03:28;;;;;;;11.55;5.97;;;15.30;99.90;;;;;;4898449;29;20055;-88
2022/10/10 11:06:08;;;;;;;10.23;5.13;;;15.30;99.90;;;;;;4897158;29;20060;-88
2022/10/10 11:08:39;;;;;;;12.02;5.45;;;15.30;99.90;;;;;;4897728;29;20064;-88
2022/10/10 11:11:29;;;;;;;9.30;5.50;;;15.40;99.90;;;;;;4898600;29;20104;-88
2022/10/10 11:14:06;;;;;;;12.02;5.65;;;15.40;99.90;;;;;;4897433;29;20090;-89
2022/10/10 11:16:40;;;;;;;13.45;4.78;;;15.40;99.90;;;;;;4898534;29;20079;-89
2022/10/10 11:19:10;;;;;;;12.55;5.03;;;15.30;99.90;;;;;;4901667;29;20046;-87
2022/10/10 11:21:44;;;;;;;10.05;5.00;;;15.20;99.90;;;;;;4905058;29;20044;-88
2022/10/10 11:24:19;;;;;;;12.60;5.53;;;15.10;99.90;;;;;;4897926;29;20056;-88
2022/10/10 11:26:52;;;;;;;14.63;5.72;;;15.00;99.90;;;;;;4897042;29;20047;-88
2022/10/10 11:29:23;;;;;;;11.45;4.80;;;14.80;99.90;;;;;;4896855;29;20083;-85
2022/10/10 11:31:55;;;;;;;9.73;5.35;;;14.70;99.90;;;;;;4896998;29;20103;-86
2022/10/10 11:34:32;;;;;;;12.82;5.43;;;14.60;99.90;;;;;;4896569;29;20111;-85
2022/10/10 11:37:04;;;;;;;10.25;5.30;;;14.60;99.90;;;;;;4897493;29;20397;-85
2022/10/10 11:39:40;;;;;;;10.57;5.20;;;14.40;99.90;;;;;;4898032;29;20058;-85
2022/10/10 11:42:13;;;;;;;11.05;5.32;;;14.30;99.90;;;;;;4896852;29;20040;-86
2022/10/10 11:44:50;;;;;;;14.85;6.35;;;14.20;99.90;;;;;;4898193;29;20077;-86
2022/10/10 11:47:18;;;;;;;17.75;7.25;;;14.20;99.90;;;;;;4898772;29;20048;-85
2022/10/10 11:49:54;;;;;;;15.25;6.80;;;14.10;99.90;;;;;;4897983;29;20111;-83
2022/10/10 11:52:28;;;;;;;15.00;6.55;;;14.00;99.90;;;;;;4896722;29;20048;-84
2022/10/10 11:55:03;;;;;;;13.40;6.47;;;13.90;99.90;;;;;;4895498;29;20339;-84
2022/10/10 11:57:42;;;;;;;17.40;6.57;;;13.90;99.90;;;;;;4896940;29;20052;-86
2022/10/10 12:00:22;;;;;;;12.23;6.90;;;13.90;99.90;;;;;;4897064;29;20052;-87
2022/10/10 12:02:48;;;;;;;15.55;7.10;;;13.90;99.90;;;;;;4883655;29;20048;-85
2022/10/10 12:05:23;;;;;;;12.25;7.18;;;13.90;99.90;;;;;;4896941;29;20066;-85
2022/10/10 12:08:00;;;;;;;11.98;7.22;;;14.00;99.90;;;;;;4897693;29;20143;-84
2022/10/10 12:10:34;;;;;;;15.38;7.75;;;14.00;99.90;;;;;;4900426;29;20496;-85
2022/10/10 12:13:16;;;;;;;15.23;7.43;;;14.00;99.90;;;;;;4915422;29;20056;-84
2022/10/10 12:15:43;;;;;;;21.73;7.72;;;14.10;99.90;;;;;;4915768;29;20103;-87
2022/10/10 12:18:28;;;;;;;21.05;8.25;;;14.10;99.90;;;;;;4900391;29;20134;-87
2022/10/10 12:21:04;;;;;;;13.18;7.95;;;14.10;99.90;;;;;;4899666;29;20047;-86
2022/10/10 12:23:31;;;;;;;13.90;7.90;;;14.10;99.90;;;;;;4900694;29;20055;-85
2022/10/10 12:25:58;;;;;;;18.50;9.18;;;14.10;99.90;;;;;;4900490;29;20118;-86
2022/10/10 12:28:55;;;;;;;17.02;8.82;;;14.10;99.90;;;;;;4900884;29;20048;-85
2022/10/10 12:31:30;;;;;;;15.68;8.55;;;14.10;99.90;;;;;;4899620;29;20106;-86
2022/10/10 12:33:56;;;;;;;17.02;8.73;;;14.20;99.90;;;;;;4900550;29;20122;-86
2022/10/10 12:36:22;;;;;;;17.58;8.65;;;14.20;99.90;;;;;;4915465;29;20516;-85
2022/10/10 12:39:01;;;;;;;17.38;8.43;;;14.20;99.90;;;;;;4915632;29;20059;-85
2022/10/10 12:41:49;;;;;;;18.02;8.60;;;14.20;99.90;;;;;;4916158;29;20055;-85
2022/10/10 12:44:41;;;;;;;22.75;9.15;;;14.10;99.90;;;;;;4900398;29;20051;-85
2022/10/10 12:47:16;;;;;;;18.05;9.20;;;14.10;99.90;;;;;;4915661;29;20752;-86
2022/10/10 12:50:00;;;;;;;19.88;9.73;;;14.00;99.90;;;;;;4916008;29;20787;-85
2022/10/10 12:52:30;;;;;;;21.08;10.05;;;14.00;99.90;;;;;;4896541;29;20115;-84
2022/10/10 12:55:05;;;;;;;18.08;10.07;;;13.80;99.90;;;;;;4895429;29;20143;-83
2022/10/10 12:57:36;;;;;;;16.15;9.18;;;13.80;99.90;;;;;;4895938;29;20059;-84
2022/10/10 13:00:05;;;;;;;17.15;9.48;;;13.70;99.90;;;;;;4878736;29;20090;-84
2022/10/10 13:02:32;;;;;;;24.20;11.30;;;13.70;99.90;;;;;;4910901;29;20080;-85